sensor_id;sensor_type;location;lat;lon;timestamp;temperature;humidity
728;DHT22;347;48.780;9.158;2024-01-25T00:02:13;11.70;24.10
728;DHT22;347;48.780;9.158;2024-01-25T00:04:39;11.50;24.20
728;DHT22;347;48.780;9.158;2024-01-25T00:07:04;11.60;24.30
728;DHT22;347;48.780;9.158;2024-01-25T00:09:30;11.60;24.30
728;DHT22;347;48.780;9.158;2024-01-25T00:11:55;11.50;24.50
728;DHT22;347;48.780;9.158;2024-01-25T00:14:21;11.50;24.90
728;DHT22;347;48.780;9.158;2024-01-25T00:16:46;11.60;24.50
728;DHT22;347;48.780;9.158;2024-01-25T00:19:12;11.60;24.30
728;DHT22;347;48.780;9.158;2024-01-25T00:21:42;11.50;25.00
728;DHT22;347;48.780;9.158;2024-01-25T00:24:08;11.50;25.30
728;DHT22;347;48.780;9.158;2024-01-25T00:26:34;11.50;25.40
728;DHT22;347;48.780;9.158;2024-01-25T00:28:59;11.50;25.70
728;DHT22;347;48.780;9.158;2024-01-25T00:31:25;11.50;26.10
728;DHT22;347;48.780;9.158;2024-01-25T00:33:50;11.50;25.70
728;DHT22;347;48.780;9.158;2024-01-25T00:36:18;11.60;25.80
728;DHT22;347;48.780;9.158;2024-01-25T00:38:43;11.60;25.90
728;DHT22;347;48.780;9.158;2024-01-25T00:41:09;11.70;25.90
728;DHT22;347;48.780;9.158;2024-01-25T00:43:36;11.60;26.20
728;DHT22;347;48.780;9.158;2024-01-25T00:46:01;11.50;26.50
728;DHT22;347;48.780;9.158;2024-01-25T00:48:28;11.60;26.60
728;DHT22;347;48.780;9.158;2024-01-25T00:50:53;11.50;26.90
728;DHT22;347;48.780;9.158;2024-01-25T00:53:19;11.40;27.30
728;DHT22;347;48.780;9.158;2024-01-25T00:55:45;11.40;27.40
728;DHT22;347;48.780;9.158;2024-01-25T00:58:11;11.50;27.50
728;DHT22;347;48.780;9.158;2024-01-25T01:00:37;11.60;27.50
728;DHT22;347;48.780;9.158;2024-01-25T01:03:03;11.50;27.50
728;DHT22;347;48.780;9.158;2024-01-25T01:05:30;11.40;27.60
728;DHT22;347;48.780;9.158;2024-01-25T01:07:56;11.40;27.90
728;DHT22;347;48.780;9.158;2024-01-25T01:10:22;11.40;28.00
728;DHT22;347;48.780;9.158;2024-01-25T01:12:47;11.40;28.10
728;DHT22;347;48.780;9.158;2024-01-25T01:15:13;11.30;28.10
728;DHT22;347;48.780;9.158;2024-01-25T01:17:38;11.30;28.30
728;DHT22;347;48.780;9.158;2024-01-25T01:20:04;11.40;28.10
728;DHT22;347;48.780;9.158;2024-01-25T01:22:30;11.40;27.90
728;DHT22;347;48.780;9.158;2024-01-25T01:24:55;11.60;27.50
728;DHT22;347;48.780;9.158;2024-01-25T01:27:21;11.60;27.40
728;DHT22;347;48.780;9.158;2024-01-25T01:29:47;11.60;27.40
728;DHT22;347;48.780;9.158;2024-01-25T01:32:12;11.60;27.40
728;DHT22;347;48.780;9.158;2024-01-25T01:34:38;11.50;27.50
728;DHT22;347;48.780;9.158;2024-01-25T01:37:03;11.60;27.20
728;DHT22;347;48.780;9.158;2024-01-25T01:39:29;11.70;26.60
728;DHT22;347;48.780;9.158;2024-01-25T01:41:54;11.70;26.70
728;DHT22;347;48.780;9.158;2024-01-25T01:44:20;11.70;26.80
728;DHT22;347;48.780;9.158;2024-01-25T01:46:46;11.60;27.50
728;DHT22;347;48.780;9.158;2024-01-25T01:49:12;11.60;27.00
728;DHT22;347;48.780;9.158;2024-01-25T01:51:40;11.50;27.30
728;DHT22;347;48.780;9.158;2024-01-25T01:54:07;11.40;27.50
728;DHT22;347;48.780;9.158;2024-01-25T01:56:33;11.40;27.60
728;DHT22;347;48.780;9.158;2024-01-25T01:59:04;11.40;27.10
728;DHT22;347;48.780;9.158;2024-01-25T02:01:31;11.50;26.50
728;DHT22;347;48.780;9.158;2024-01-25T02:03:56;11.50;26.80
728;DHT22;347;48.780;9.158;2024-01-25T02:06:24;11.50;26.50
728;DHT22;347;48.780;9.158;2024-01-25T02:08:50;11.50;26.20
728;DHT22;347;48.780;9.158;2024-01-25T02:11:16;11.40;26.30
728;DHT22;347;48.780;9.158;2024-01-25T02:13:42;11.40;26.60
728;DHT22;347;48.780;9.158;2024-01-25T02:16:08;11.30;26.50
728;DHT22;347;48.780;9.158;2024-01-25T02:18:34;11.30;26.60
728;DHT22;347;48.780;9.158;2024-01-25T02:21:00;11.50;26.30
728;DHT22;347;48.780;9.158;2024-01-25T02:23:25;11.50;25.80
728;DHT22;347;48.780;9.158;2024-01-25T02:25:51;11.40;26.00
728;DHT22;347;48.780;9.158;2024-01-25T02:28:16;11.30;26.20
728;DHT22;347;48.780;9.158;2024-01-25T02:30:42;11.30;26.30
728;DHT22;347;48.780;9.158;2024-01-25T02:33:08;11.30;26.40
728;DHT22;347;48.780;9.158;2024-01-25T02:35:33;11.30;26.50
728;DHT22;347;48.780;9.158;2024-01-25T02:37:59;11.30;26.50
728;DHT22;347;48.780;9.158;2024-01-25T02:40:25;11.20;26.50
728;DHT22;347;48.780;9.158;2024-01-25T02:42:50;11.10;26.60
728;DHT22;347;48.780;9.158;2024-01-25T02:45:16;11.10;26.80
728;DHT22;347;48.780;9.158;2024-01-25T02:47:41;11.20;26.20
728;DHT22;347;48.780;9.158;2024-01-25T02:50:07;11.00;26.60
728;DHT22;347;48.780;9.158;2024-01-25T02:52:33;11.00;26.70
728;DHT22;347;48.780;9.158;2024-01-25T02:54:58;11.10;26.80
728;DHT22;347;48.780;9.158;2024-01-25T02:57:25;11.20;26.40
728;DHT22;347;48.780;9.158;2024-01-25T02:59:50;11.30;26.20
728;DHT22;347;48.780;9.158;2024-01-25T03:02:16;11.30;26.10
728;DHT22;347;48.780;9.158;2024-01-25T03:04:44;11.30;26.50
728;DHT22;347;48.780;9.158;2024-01-25T03:07:10;11.40;25.90
728;DHT22;347;48.780;9.158;2024-01-25T03:09:35;11.50;25.50
728;DHT22;347;48.780;9.158;2024-01-25T03:12:01;11.60;25.30
728;DHT22;347;48.780;9.158;2024-01-25T03:14:27;11.40;25.70
728;DHT22;347;48.780;9.158;2024-01-25T03:16:52;11.40;26.00
728;DHT22;347;48.780;9.158;2024-01-25T03:19:18;11.50;25.40
728;DHT22;347;48.780;9.158;2024-01-25T03:21:43;11.60;25.50
728;DHT22;347;48.780;9.158;2024-01-25T03:24:09;11.60;25.40
728;DHT22;347;48.780;9.158;2024-01-25T03:26:34;11.60;25.80
728;DHT22;347;48.780;9.158;2024-01-25T03:29:00;11.70;25.30
728;DHT22;347;48.780;9.158;2024-01-25T03:31:26;11.70;25.30
728;DHT22;347;48.780;9.158;2024-01-25T03:33:51;11.80;25.10
728;DHT22;347;48.780;9.158;2024-01-25T03:36:17;11.70;25.00
728;DHT22;347;48.780;9.158;2024-01-25T03:38:42;11.80;25.10
728;DHT22;347;48.780;9.158;2024-01-25T03:41:08;11.80;25.00
728;DHT22;347;48.780;9.158;2024-01-25T03:43:35;11.80;24.90
728;DHT22;347;48.780;9.158;2024-01-25T03:46:01;11.90;24.90
728;DHT22;347;48.780;9.158;2024-01-25T03:48:26;11.90;24.90
728;DHT22;347;48.780;9.158;2024-01-25T03:50:52;11.80;25.10
728;DHT22;347;48.780;9.158;2024-01-25T03:53:22;11.90;25.10
728;DHT22;347;48.780;9.158;2024-01-25T03:55:47;11.70;25.60
728;DHT22;347;48.780;9.158;2024-01-25T03:58:17;11.60;26.00
728;DHT22;347;48.780;9.158;2024-01-25T04:00:43;11.70;26.40
728;DHT22;347;48.780;9.158;2024-01-25T04:03:10;11.70;25.70
728;DHT22;347;48.780;9.158;2024-01-25T04:05:35;11.80;25.30
728;DHT22;347;48.780;9.158;2024-01-25T04:08:01;11.80;25.30
728;DHT22;347;48.780;9.158;2024-01-25T04:10:27;11.80;25.60
728;DHT22;347;48.780;9.158;2024-01-25T04:12:52;11.80;25.40
728;DHT22;347;48.780;9.158;2024-01-25T04:15:18;11.90;25.20
728;DHT22;347;48.780;9.158;2024-01-25T04:17:43;12.00;25.00
728;DHT22;347;48.780;9.158;2024-01-25T04:20:09;12.10;24.70
728;DHT22;347;48.780;9.158;2024-01-25T04:22:36;12.10;24.60
728;DHT22;347;48.780;9.158;2024-01-25T04:25:01;12.20;24.70
728;DHT22;347;48.780;9.158;2024-01-25T04:27:27;12.30;24.70
728;DHT22;347;48.780;9.158;2024-01-25T04:29:52;12.40;24.30
728;DHT22;347;48.780;9.158;2024-01-25T04:32:18;12.30;24.70
728;DHT22;347;48.780;9.158;2024-01-25T04:34:44;12.20;24.70
728;DHT22;347;48.780;9.158;2024-01-25T04:37:09;12.30;24.80
728;DHT22;347;48.780;9.158;2024-01-25T04:39:35;12.40;23.70
728;DHT22;347;48.780;9.158;2024-01-25T04:42:00;12.50;23.70
728;DHT22;347;48.780;9.158;2024-01-25T04:44:26;12.50;23.60
728;DHT22;347;48.780;9.158;2024-01-25T04:46:52;12.50;23.40
728;DHT22;347;48.780;9.158;2024-01-25T04:49:19;12.30;23.60
728;DHT22;347;48.780;9.158;2024-01-25T04:51:44;12.10;23.60
728;DHT22;347;48.780;9.158;2024-01-25T04:54:10;12.20;23.70
728;DHT22;347;48.780;9.158;2024-01-25T04:56:38;12.10;23.40
728;DHT22;347;48.780;9.158;2024-01-25T04:59:03;11.90;23.70
728;DHT22;347;48.780;9.158;2024-01-25T05:01:29;11.90;23.80
728;DHT22;347;48.780;9.158;2024-01-25T05:03:54;11.70;23.70
728;DHT22;347;48.780;9.158;2024-01-25T05:06:20;11.60;24.30
728;DHT22;347;48.780;9.158;2024-01-25T05:08:46;11.30;24.10
728;DHT22;347;48.780;9.158;2024-01-25T05:11:11;11.20;24.00
728;DHT22;347;48.780;9.158;2024-01-25T05:13:47;11.10;24.60
728;DHT22;347;48.780;9.158;2024-01-25T05:16:13;11.20;24.60
728;DHT22;347;48.780;9.158;2024-01-25T05:18:38;11.20;24.20
728;DHT22;347;48.780;9.158;2024-01-25T05:21:04;11.20;24.50
728;DHT22;347;48.780;9.158;2024-01-25T05:23:31;11.20;24.00
728;DHT22;347;48.780;9.158;2024-01-25T05:25:57;11.20;24.30
728;DHT22;347;48.780;9.158;2024-01-25T05:28:25;11.10;24.40
728;DHT22;347;48.780;9.158;2024-01-25T05:30:51;10.90;24.90
728;DHT22;347;48.780;9.158;2024-01-25T05:33:23;10.80;24.60
728;DHT22;347;48.780;9.158;2024-01-25T05:35:52;10.70;25.00
728;DHT22;347;48.780;9.158;2024-01-25T05:38:18;10.80;24.50
728;DHT22;347;48.780;9.158;2024-01-25T05:40:44;10.90;24.30
728;DHT22;347;48.780;9.158;2024-01-25T05:43:09;10.80;24.30
728;DHT22;347;48.780;9.158;2024-01-25T05:45:35;10.80;24.70
728;DHT22;347;48.780;9.158;2024-01-25T05:48:01;10.90;24.30
728;DHT22;347;48.780;9.158;2024-01-25T05:50:26;10.80;23.70
728;DHT22;347;48.780;9.158;2024-01-25T05:52:52;10.70;24.00
728;DHT22;347;48.780;9.158;2024-01-25T05:55:17;10.60;24.60
728;DHT22;347;48.780;9.158;2024-01-25T05:57:43;10.60;24.50
728;DHT22;347;48.780;9.158;2024-01-25T06:00:12;10.60;24.90
728;DHT22;347;48.780;9.158;2024-01-25T06:02:40;10.70;24.90
728;DHT22;347;48.780;9.158;2024-01-25T06:05:06;10.70;25.00
728;DHT22;347;48.780;9.158;2024-01-25T06:07:31;10.80;24.80
728;DHT22;347;48.780;9.158;2024-01-25T06:09:57;10.70;25.00
728;DHT22;347;48.780;9.158;2024-01-25T06:12:22;10.60;25.60
728;DHT22;347;48.780;9.158;2024-01-25T06:14:48;10.50;25.80
728;DHT22;347;48.780;9.158;2024-01-25T06:17:14;10.60;26.10
728;DHT22;347;48.780;9.158;2024-01-25T06:19:40;10.60;26.10
728;DHT22;347;48.780;9.158;2024-01-25T06:22:08;10.70;26.50
728;DHT22;347;48.780;9.158;2024-01-25T06:24:34;10.80;26.30
728;DHT22;347;48.780;9.158;2024-01-25T06:27:36;10.80;26.20
728;DHT22;347;48.780;9.158;2024-01-25T06:30:38;10.80;26.30
728;DHT22;347;48.780;9.158;2024-01-25T06:43:51;10.40;27.90
728;DHT22;347;48.780;9.158;2024-01-25T06:46:45;10.30;28.30
728;DHT22;347;48.780;9.158;2024-01-25T06:57:07;10.30;28.50
728;DHT22;347;48.780;9.158;2024-01-25T07:16:34;10.60;27.10
728;DHT22;347;48.780;9.158;2024-01-25T07:19:07;10.50;27.40
728;DHT22;347;48.780;9.158;2024-01-25T07:22:09;10.60;27.40
728;DHT22;347;48.780;9.158;2024-01-25T07:27:52;10.60;27.30
728;DHT22;347;48.780;9.158;2024-01-25T07:33:41;11.00;26.80
728;DHT22;347;48.780;9.158;2024-01-25T07:36:07;11.10;25.90
728;DHT22;347;48.780;9.158;2024-01-25T07:38:32;11.10;26.10
728;DHT22;347;48.780;9.158;2024-01-25T07:41:01;11.00;25.60
728;DHT22;347;48.780;9.158;2024-01-25T07:43:26;10.90;25.90
728;DHT22;347;48.780;9.158;2024-01-25T07:45:54;10.70;26.00
728;DHT22;347;48.780;9.158;2024-01-25T07:48:20;10.60;26.40
728;DHT22;347;48.780;9.158;2024-01-25T07:50:46;10.80;25.80
728;DHT22;347;48.780;9.158;2024-01-25T07:53:11;10.70;26.00
728;DHT22;347;48.780;9.158;2024-01-25T07:55:37;10.70;25.70
728;DHT22;347;48.780;9.158;2024-01-25T07:58:03;10.60;25.90
728;DHT22;347;48.780;9.158;2024-01-25T08:00:28;10.50;26.30
728;DHT22;347;48.780;9.158;2024-01-25T08:02:54;10.50;26.30
728;DHT22;347;48.780;9.158;2024-01-25T08:05:20;10.50;26.20
728;DHT22;347;48.780;9.158;2024-01-25T08:07:46;10.40;26.00
728;DHT22;347;48.780;9.158;2024-01-25T08:10:12;10.40;26.10
728;DHT22;347;48.780;9.158;2024-01-25T08:12:38;10.50;26.10
728;DHT22;347;48.780;9.158;2024-01-25T08:15:07;10.50;25.60
728;DHT22;347;48.780;9.158;2024-01-25T08:17:33;10.70;25.20
728;DHT22;347;48.780;9.158;2024-01-25T08:20:01;10.60;25.00
728;DHT22;347;48.780;9.158;2024-01-25T08:22:27;10.50;25.30
728;DHT22;347;48.780;9.158;2024-01-25T08:24:53;10.40;25.40
728;DHT22;347;48.780;9.158;2024-01-25T08:27:19;10.60;25.50
728;DHT22;347;48.780;9.158;2024-01-25T08:29:47;10.80;24.90
728;DHT22;347;48.780;9.158;2024-01-25T08:32:12;10.80;24.30
728;DHT22;347;48.780;9.158;2024-01-25T08:37:52;10.90;23.80
728;DHT22;347;48.780;9.158;2024-01-25T08:40:18;10.80;23.80
728;DHT22;347;48.780;9.158;2024-01-25T08:42:44;11.00;23.90
728;DHT22;347;48.780;9.158;2024-01-25T08:45:13;11.00;23.20
728;DHT22;347;48.780;9.158;2024-01-25T08:48:39;10.80;23.20
728;DHT22;347;48.780;9.158;2024-01-25T08:51:36;10.80;23.70
728;DHT22;347;48.780;9.158;2024-01-25T08:54:45;10.80;23.70
728;DHT22;347;48.780;9.158;2024-01-25T08:57:11;10.70;23.70
728;DHT22;347;48.780;9.158;2024-01-25T08:59:39;10.50;23.90
728;DHT22;347;48.780;9.158;2024-01-25T09:02:25;10.50;23.70
728;DHT22;347;48.780;9.158;2024-01-25T09:12:16;10.70;23.70
728;DHT22;347;48.780;9.158;2024-01-25T09:14:54;10.50;23.50
728;DHT22;347;48.780;9.158;2024-01-25T09:17:36;10.40;23.80
728;DHT22;347;48.780;9.158;2024-01-25T09:20:01;10.40;23.50
728;DHT22;347;48.780;9.158;2024-01-25T09:22:28;10.60;23.90
728;DHT22;347;48.780;9.158;2024-01-25T09:24:54;10.80;23.20
728;DHT22;347;48.780;9.158;2024-01-25T09:27:51;11.00;23.10
728;DHT22;347;48.780;9.158;2024-01-25T09:30:16;11.30;21.90
728;DHT22;347;48.780;9.158;2024-01-25T09:32:42;11.50;21.50
728;DHT22;347;48.780;9.158;2024-01-25T09:35:10;11.40;21.60
728;DHT22;347;48.780;9.158;2024-01-25T09:37:36;11.50;20.90
728;DHT22;347;48.780;9.158;2024-01-25T09:40:02;11.40;20.50
728;DHT22;347;48.780;9.158;2024-01-25T09:42:29;11.40;20.50
728;DHT22;347;48.780;9.158;2024-01-25T09:44:55;11.50;20.10
728;DHT22;347;48.780;9.158;2024-01-25T09:47:23;11.40;20.50
728;DHT22;347;48.780;9.158;2024-01-25T09:49:49;11.50;20.70
728;DHT22;347;48.780;9.158;2024-01-25T09:52:16;11.60;20.20
728;DHT22;347;48.780;9.158;2024-01-25T09:54:45;11.60;20.40
728;DHT22;347;48.780;9.158;2024-01-25T09:57:16;11.60;20.20
728;DHT22;347;48.780;9.158;2024-01-25T09:59:44;11.60;20.50
728;DHT22;347;48.780;9.158;2024-01-25T10:02:10;11.70;19.90
728;DHT22;347;48.780;9.158;2024-01-25T10:04:51;11.80;20.00
728;DHT22;347;48.780;9.158;2024-01-25T10:07:43;11.60;20.10
728;DHT22;347;48.780;9.158;2024-01-25T10:10:10;11.50;20.30
728;DHT22;347;48.780;9.158;2024-01-25T10:12:42;11.30;20.90
728;DHT22;347;48.780;9.158;2024-01-25T10:15:48;11.40;20.80
728;DHT22;347;48.780;9.158;2024-01-25T10:18:26;11.50;20.60
728;DHT22;347;48.780;9.158;2024-01-25T10:21:12;11.60;20.00
728;DHT22;347;48.780;9.158;2024-01-25T10:24:15;11.70;19.80
728;DHT22;347;48.780;9.158;2024-01-25T10:26:44;11.70;20.10
728;DHT22;347;48.780;9.158;2024-01-25T10:32:50;11.60;20.40
728;DHT22;347;48.780;9.158;2024-01-25T10:35:32;11.70;20.30
728;DHT22;347;48.780;9.158;2024-01-25T10:41:56;11.90;19.80
728;DHT22;347;48.780;9.158;2024-01-25T10:44:51;11.80;20.30
728;DHT22;347;48.780;9.158;2024-01-25T10:47:23;11.70;20.60
728;DHT22;347;48.780;9.158;2024-01-25T10:50:01;11.50;21.10
728;DHT22;347;48.780;9.158;2024-01-25T10:52:37;11.60;20.90
728;DHT22;347;48.780;9.158;2024-01-25T10:55:05;11.70;20.50
728;DHT22;347;48.780;9.158;2024-01-25T10:57:44;11.80;20.30
728;DHT22;347;48.780;9.158;2024-01-25T11:00:12;11.90;20.00
728;DHT22;347;48.780;9.158;2024-01-25T11:02:45;12.00;19.80
728;DHT22;347;48.780;9.158;2024-01-25T11:05:24;12.00;19.70
728;DHT22;347;48.780;9.158;2024-01-25T11:07:51;12.10;19.80
728;DHT22;347;48.780;9.158;2024-01-25T11:10:21;12.10;19.50
728;DHT22;347;48.780;9.158;2024-01-25T11:13:00;12.20;19.50
728;DHT22;347;48.780;9.158;2024-01-25T11:15:31;12.20;19.40
728;DHT22;347;48.780;9.158;2024-01-25T11:18:01;12.20;19.30
728;DHT22;347;48.780;9.158;2024-01-25T11:20:30;12.20;19.20
728;DHT22;347;48.780;9.158;2024-01-25T11:22:57;12.20;19.60
728;DHT22;347;48.780;9.158;2024-01-25T11:28:47;12.10;19.50
728;DHT22;347;48.780;9.158;2024-01-25T11:31:18;12.20;19.50
728;DHT22;347;48.780;9.158;2024-01-25T11:33:59;12.10;19.70
728;DHT22;347;48.780;9.158;2024-01-25T11:36:26;12.10;19.90
728;DHT22;347;48.780;9.158;2024-01-25T11:38:52;12.20;19.50
728;DHT22;347;48.780;9.158;2024-01-25T11:41:18;12.20;19.70
728;DHT22;347;48.780;9.158;2024-01-25T11:43:44;12.30;19.70
728;DHT22;347;48.780;9.158;2024-01-25T11:46:09;12.20;18.90
728;DHT22;347;48.780;9.158;2024-01-25T11:48:39;12.00;19.40
728;DHT22;347;48.780;9.158;2024-01-25T11:51:06;12.00;19.40
728;DHT22;347;48.780;9.158;2024-01-25T11:53:32;11.90;18.60
728;DHT22;347;48.780;9.158;2024-01-25T11:55:57;11.80;18.10
728;DHT22;347;48.780;9.158;2024-01-25T11:58:23;12.00;18.00
728;DHT22;347;48.780;9.158;2024-01-25T12:00:49;12.10;17.40
728;DHT22;347;48.780;9.158;2024-01-25T12:03:15;12.10;17.30
728;DHT22;347;48.780;9.158;2024-01-25T12:05:41;12.00;17.90
728;DHT22;347;48.780;9.158;2024-01-25T12:08:13;12.10;17.40
728;DHT22;347;48.780;9.158;2024-01-25T12:10:39;12.10;16.90
728;DHT22;347;48.780;9.158;2024-01-25T12:13:08;12.20;17.30
728;DHT22;347;48.780;9.158;2024-01-25T12:18:28;12.50;18.30
728;DHT22;347;48.780;9.158;2024-01-25T12:21:04;12.50;18.80
728;DHT22;347;48.780;9.158;2024-01-25T12:23:38;12.50;18.60
728;DHT22;347;48.780;9.158;2024-01-25T12:26:10;12.40;18.80
728;DHT22;347;48.780;9.158;2024-01-25T12:28:36;12.50;18.90
728;DHT22;347;48.780;9.158;2024-01-25T12:31:06;12.50;18.90
728;DHT22;347;48.780;9.158;2024-01-25T12:33:33;12.50;18.40
728;DHT22;347;48.780;9.158;2024-01-25T12:35:59;12.50;18.40
728;DHT22;347;48.780;9.158;2024-01-25T12:38:25;12.50;18.40
728;DHT22;347;48.780;9.158;2024-01-25T12:40:52;12.50;18.40
728;DHT22;347;48.780;9.158;2024-01-25T12:43:18;12.50;18.70
728;DHT22;347;48.780;9.158;2024-01-25T12:45:44;12.60;18.30
728;DHT22;347;48.780;9.158;2024-01-25T12:48:10;12.70;18.00
728;DHT22;347;48.780;9.158;2024-01-25T12:50:36;12.70;17.80
728;DHT22;347;48.780;9.158;2024-01-25T12:53:02;12.80;17.40
728;DHT22;347;48.780;9.158;2024-01-25T12:55:28;12.90;16.90
728;DHT22;347;48.780;9.158;2024-01-25T12:57:54;13.00;17.00
728;DHT22;347;48.780;9.158;2024-01-25T13:00:21;13.00;17.00
728;DHT22;347;48.780;9.158;2024-01-25T13:02:47;13.10;16.90
728;DHT22;347;48.780;9.158;2024-01-25T13:05:13;13.10;16.50
728;DHT22;347;48.780;9.158;2024-01-25T13:07:39;13.20;16.90
728;DHT22;347;48.780;9.158;2024-01-25T13:10:05;13.30;16.90
728;DHT22;347;48.780;9.158;2024-01-25T13:12:31;13.30;16.80
728;DHT22;347;48.780;9.158;2024-01-25T13:14:56;13.40;17.20
728;DHT22;347;48.780;9.158;2024-01-25T13:17:22;13.40;17.20
728;DHT22;347;48.780;9.158;2024-01-25T13:19:49;13.40;17.20
728;DHT22;347;48.780;9.158;2024-01-25T13:22:15;13.40;16.40
728;DHT22;347;48.780;9.158;2024-01-25T13:24:42;13.40;16.50
728;DHT22;347;48.780;9.158;2024-01-25T13:27:08;13.40;17.20
728;DHT22;347;48.780;9.158;2024-01-25T13:29:34;13.30;17.10
728;DHT22;347;48.780;9.158;2024-01-25T13:32:00;13.30;17.20
728;DHT22;347;48.780;9.158;2024-01-25T13:34:25;13.20;17.10
728;DHT22;347;48.780;9.158;2024-01-25T13:36:51;13.20;18.00
728;DHT22;347;48.780;9.158;2024-01-25T13:39:16;13.20;18.10
728;DHT22;347;48.780;9.158;2024-01-25T13:41:41;13.30;18.30
728;DHT22;347;48.780;9.158;2024-01-25T13:44:07;13.30;18.40
728;DHT22;347;48.780;9.158;2024-01-25T13:46:32;13.30;18.30
728;DHT22;347;48.780;9.158;2024-01-25T13:48:58;13.30;18.10
728;DHT22;347;48.780;9.158;2024-01-25T13:51:24;13.20;18.10
728;DHT22;347;48.780;9.158;2024-01-25T13:53:49;13.20;18.40
728;DHT22;347;48.780;9.158;2024-01-25T13:56:15;13.20;18.40
728;DHT22;347;48.780;9.158;2024-01-25T13:58:40;13.20;18.20
728;DHT22;347;48.780;9.158;2024-01-25T14:01:06;13.20;18.10
728;DHT22;347;48.780;9.158;2024-01-25T14:03:31;13.20;17.90
728;DHT22;347;48.780;9.158;2024-01-25T14:05:57;13.30;18.00
728;DHT22;347;48.780;9.158;2024-01-25T14:08:23;13.30;18.00
728;DHT22;347;48.780;9.158;2024-01-25T14:10:48;13.30;17.70
728;DHT22;347;48.780;9.158;2024-01-25T14:13:14;13.30;17.50
728;DHT22;347;48.780;9.158;2024-01-25T14:15:39;13.30;18.00
728;DHT22;347;48.780;9.158;2024-01-25T14:18:05;13.30;17.40
728;DHT22;347;48.780;9.158;2024-01-25T14:20:31;13.30;17.30
728;DHT22;347;48.780;9.158;2024-01-25T14:22:56;13.30;17.70
728;DHT22;347;48.780;9.158;2024-01-25T14:25:22;13.30;17.80
728;DHT22;347;48.780;9.158;2024-01-25T14:27:47;13.30;17.50
728;DHT22;347;48.780;9.158;2024-01-25T14:30:14;13.20;17.60
728;DHT22;347;48.780;9.158;2024-01-25T14:32:40;13.20;17.50
728;DHT22;347;48.780;9.158;2024-01-25T14:35:07;13.20;17.70
728;DHT22;347;48.780;9.158;2024-01-25T14:37:32;13.20;17.80
728;DHT22;347;48.780;9.158;2024-01-25T14:39:58;13.10;17.80
728;DHT22;347;48.780;9.158;2024-01-25T14:42:23;13.10;17.90
728;DHT22;347;48.780;9.158;2024-01-25T14:44:49;13.10;17.90
728;DHT22;347;48.780;9.158;2024-01-25T14:47:14;13.10;17.90
728;DHT22;347;48.780;9.158;2024-01-25T14:49:45;13.10;17.80
728;DHT22;347;48.780;9.158;2024-01-25T14:52:11;13.10;17.90
728;DHT22;347;48.780;9.158;2024-01-25T14:54:36;13.10;18.10
728;DHT22;347;48.780;9.158;2024-01-25T14:57:02;13.10;18.30
728;DHT22;347;48.780;9.158;2024-01-25T14:59:28;13.10;18.40
728;DHT22;347;48.780;9.158;2024-01-25T15:01:53;13.00;18.70
728;DHT22;347;48.780;9.158;2024-01-25T15:04:19;13.00;18.20
728;DHT22;347;48.780;9.158;2024-01-25T15:06:44;13.00;18.20
728;DHT22;347;48.780;9.158;2024-01-25T15:09:10;13.10;18.50
728;DHT22;347;48.780;9.158;2024-01-25T15:11:35;13.10;18.50
728;DHT22;347;48.780;9.158;2024-01-25T15:14:01;13.00;18.70
728;DHT22;347;48.780;9.158;2024-01-25T15:16:26;13.00;18.90
728;DHT22;347;48.780;9.158;2024-01-25T15:18:54;13.00;18.90
728;DHT22;347;48.780;9.158;2024-01-25T15:21:19;12.90;18.90
728;DHT22;347;48.780;9.158;2024-01-25T15:23:45;12.90;19.20
728;DHT22;347;48.780;9.158;2024-01-25T15:26:10;12.90;19.30
728;DHT22;347;48.780;9.158;2024-01-25T15:28:36;12.90;19.30
728;DHT22;347;48.780;9.158;2024-01-25T15:31:01;12.90;19.50
728;DHT22;347;48.780;9.158;2024-01-25T15:33:27;12.90;19.70
728;DHT22;347;48.780;9.158;2024-01-25T15:35:53;12.90;19.60
728;DHT22;347;48.780;9.158;2024-01-25T15:38:19;12.90;19.80
728;DHT22;347;48.780;9.158;2024-01-25T15:40:45;12.90;19.50
728;DHT22;347;48.780;9.158;2024-01-25T15:43:11;13.00;19.20
728;DHT22;347;48.780;9.158;2024-01-25T15:45:36;13.00;19.10
728;DHT22;347;48.780;9.158;2024-01-25T15:48:02;12.90;19.20
728;DHT22;347;48.780;9.158;2024-01-25T15:50:28;12.90;19.60
728;DHT22;347;48.780;9.158;2024-01-25T15:52:54;12.90;19.20
728;DHT22;347;48.780;9.158;2024-01-25T15:55:21;12.90;19.20
728;DHT22;347;48.780;9.158;2024-01-25T15:57:46;12.90;19.10
728;DHT22;347;48.780;9.158;2024-01-25T16:00:12;12.90;19.10
728;DHT22;347;48.780;9.158;2024-01-25T16:02:40;12.90;19.10
728;DHT22;347;48.780;9.158;2024-01-25T16:05:05;12.90;19.20
728;DHT22;347;48.780;9.158;2024-01-25T16:07:31;12.70;19.40
728;DHT22;347;48.780;9.158;2024-01-25T16:09:56;12.60;19.80
728;DHT22;347;48.780;9.158;2024-01-25T16:12:22;12.60;19.50
728;DHT22;347;48.780;9.158;2024-01-25T16:14:49;12.70;19.20
728;DHT22;347;48.780;9.158;2024-01-25T16:17:16;12.80;18.90
728;DHT22;347;48.780;9.158;2024-01-25T16:19:42;12.80;18.80
728;DHT22;347;48.780;9.158;2024-01-25T16:22:07;12.90;18.80
728;DHT22;347;48.780;9.158;2024-01-25T16:24:34;13.00;18.60
728;DHT22;347;48.780;9.158;2024-01-25T16:26:59;13.00;18.50
728;DHT22;347;48.780;9.158;2024-01-25T16:29:25;13.00;18.40
728;DHT22;347;48.780;9.158;2024-01-25T16:31:50;13.00;18.30
728;DHT22;347;48.780;9.158;2024-01-25T16:34:16;13.00;18.60
728;DHT22;347;48.780;9.158;2024-01-25T16:36:41;13.00;18.80
728;DHT22;347;48.780;9.158;2024-01-25T16:39:07;13.00;19.10
728;DHT22;347;48.780;9.158;2024-01-25T16:41:32;13.00;19.10
728;DHT22;347;48.780;9.158;2024-01-25T16:43:58;13.00;18.90
728;DHT22;347;48.780;9.158;2024-01-25T16:46:24;13.00;18.70
728;DHT22;347;48.780;9.158;2024-01-25T16:48:49;13.00;18.70
728;DHT22;347;48.780;9.158;2024-01-25T16:51:15;13.00;18.70
728;DHT22;347;48.780;9.158;2024-01-25T16:53:40;13.00;18.80
728;DHT22;347;48.780;9.158;2024-01-25T16:56:07;13.00;19.10
728;DHT22;347;48.780;9.158;2024-01-25T16:58:33;13.00;18.80
728;DHT22;347;48.780;9.158;2024-01-25T17:00:59;13.00;18.90
728;DHT22;347;48.780;9.158;2024-01-25T17:03:24;13.00;19.00
728;DHT22;347;48.780;9.158;2024-01-25T17:05:50;12.90;18.90
728;DHT22;347;48.780;9.158;2024-01-25T17:08:15;12.90;18.90
728;DHT22;347;48.780;9.158;2024-01-25T17:10:42;13.00;19.00
728;DHT22;347;48.780;9.158;2024-01-25T17:13:08;12.90;19.00
728;DHT22;347;48.780;9.158;2024-01-25T17:15:33;12.90;19.10
728;DHT22;347;48.780;9.158;2024-01-25T17:17:59;12.90;19.30
728;DHT22;347;48.780;9.158;2024-01-25T17:20:25;12.90;19.20
728;DHT22;347;48.780;9.158;2024-01-25T17:22:50;12.80;19.20
728;DHT22;347;48.780;9.158;2024-01-25T17:25:16;12.80;19.50
728;DHT22;347;48.780;9.158;2024-01-25T17:27:45;12.70;19.50
728;DHT22;347;48.780;9.158;2024-01-25T17:30:12;12.70;19.60
728;DHT22;347;48.780;9.158;2024-01-25T17:32:38;12.70;19.60
728;DHT22;347;48.780;9.158;2024-01-25T17:35:04;12.70;20.00
728;DHT22;347;48.780;9.158;2024-01-25T17:37:29;12.70;20.50
728;DHT22;347;48.780;9.158;2024-01-25T17:39:55;12.70;21.30
728;DHT22;347;48.780;9.158;2024-01-25T17:42:20;12.70;21.70
728;DHT22;347;48.780;9.158;2024-01-25T17:44:46;12.70;22.50